Wetterdaten der Wetterstation 52249 Eschweiler

Letzte Wetterlage 29.05.2015 10:12
Wetterdiagramm
Tabellarische Darstellung
Datum Temperatur Windchill Feuchte Luftdruck Windrichtung Windstärke Niederschlag
29.05.2015 10:12 13,1 °C 13,1 °C 65 % 1011,5 hPa 223 1.8 0 l/m²
29.05.2015 09:52 13,1 °C 13,1 °C 67 % 1011,7 hPa 191 1.3 0 l/m²
29.05.2015 09:32 12,8 °C 12,8 °C 70 % 1012,0 hPa 212 0.4 0 l/m²
29.05.2015 09:12 12,3 °C 12,3 °C 70 % 1012,0 hPa 194 0.9 0 l/m²
29.05.2015 08:52 12,3 °C 12,3 °C 71 % 1011,9 hPa 262 0.0 0 l/m²
29.05.2015 08:32 11,5 °C 10,5 °C 74 % 1011,9 hPa 162 2.2 0 l/m²
29.05.2015 08:12 11,2 °C 10,2 °C 77 % 1012,0 hPa 200 2.2 0 l/m²
29.05.2015 07:52 10,6 °C 10,6 °C 81 % 1011,9 hPa 198 0.9 0 l/m²
29.05.2015 07:32 9,8 °C 9,8 °C 83 % 1012,0 hPa 198 0.9 0 l/m²
29.05.2015 07:12 9,6 °C 9,6 °C 83 % 1012,2 hPa 251 0.4 0 l/m²
29.05.2015 06:52 9,3 °C 9,3 °C 84 % 1012,4 hPa 170 1.8 0 l/m²
29.05.2015 06:32 8,9 °C 8,9 °C 85 % 1012,3 hPa 190 0.0 0 l/m²
29.05.2015 06:12 8,5 °C 8,5 °C 86 % 1012,4 hPa 174 0.4 0 l/m²
29.05.2015 05:52 8,4 °C 8,4 °C 86 % 1012,5 hPa 197 0.4 0 l/m²
29.05.2015 05:32 8,5 °C 8,5 °C 85 % 1012,6 hPa 174 1.3 0 l/m²
29.05.2015 05:12 8,7 °C 8,7 °C 85 % 1012,7 hPa 200 0.0 0 l/m²
29.05.2015 04:52 8,8 °C 8,8 °C 84 % 1012,8 hPa 197 0.0 0 l/m²
29.05.2015 04:32 9,0 °C 9,0 °C 84 % 1012,8 hPa 170 1.8 0 l/m²
29.05.2015 04:12 9,0 °C 9,0 °C 84 % 1013,0 hPa 186 0.0 0 l/m²
29.05.2015 03:52 9,2 °C 9,2 °C 83 % 1013,1 hPa 178 0.9 0 l/m²
29.05.2015 03:32 9,3 °C 9,3 °C 83 % 1013,4 hPa 205 0.9 0 l/m²
29.05.2015 03:12 9,6 °C 9,6 °C 82 % 1013,5 hPa 212 0.0 0 l/m²
29.05.2015 02:52 9,8 °C 9,8 °C 82 % 1013,6 hPa 208 0.4 0 l/m²
29.05.2015 02:32 10,2 °C 10,2 °C 80 % 1013,8 hPa 195 0.0 0 l/m²
29.05.2015 02:12 10,7 °C 10,7 °C 80 % 1013,9 hPa 185 0.0 0 l/m²
Neue Wetterwarnung

Neue Niederschlagsmeldung
Neue Meldung
Regen Liveticker
    sehr starker Regen/Gewitter
    starker Regen/Gewitter
    mäßiger bis starker Regen
    mäßiger Regen
    leichter bis mäßiger Regen
    kein Regen